Terminal Aerodrome Forecast
Issued by NWS Blacksburg, VA

Home | Current Version | Previous Version | Text Only | Print | Product List | Glossary On
Versions: 1 2 3 4 5 6 7 8 9 10 11 12 13
000
FTUS41 KRNK 200520
TAFDAN
TAF
KDAN 200520Z 2006/2106 VRB03KT P6SM SCT080 OVC150
     FM201000 13004KT P6SM BKN080 OVC150
     FM201200 13005KT P6SM -RA OVC070
     FM201400 14006KT 4SM -RA BR OVC025
      TEMPO 2015/2017 2SM RA BR OVC015
     FM202000 VRB03KT 6SM BR BKN007 OVC012
     FM210000 00000KT 5SM BR OVC007=

USA.gov is the U.S. government's official web portal to all federal, state and local government web resources and services.